sensor_id;sensor_type;location;lat;lon;timestamp;P1;durP1;ratioP1;P2;durP2;ratioP2
22652;SDS011;11493;43.344;26.226;2023-09-30T00:01:15;11.73;;;6.75;;
22652;SDS011;11493;43.344;26.226;2023-09-30T00:03:42;18.02;;;5.85;;
22652;SDS011;11493;43.344;26.226;2023-09-30T00:06:10;18.13;;;6.68;;
22652;SDS011;11493;43.344;26.226;2023-09-30T00:08:37;19.60;;;6.78;;
22652;SDS011;11493;43.344;26.226;2023-09-30T00:11:05;15.52;;;6.43;;
22652;SDS011;11493;43.344;26.226;2023-09-30T00:13:33;10.63;;;5.90;;
22652;SDS011;11493;43.344;26.226;2023-09-30T00:16:00;14.63;;;6.90;;
22652;SDS011;11493;43.344;26.226;2023-09-30T00:18:27;16.05;;;7.03;;
22652;SDS011;11493;43.344;26.226;2023-09-30T00:20:54;16.13;;;6.80;;
22652;SDS011;11493;43.344;26.226;2023-09-30T00:23:21;11.77;;;6.30;;
22652;SDS011;11493;43.344;26.226;2023-09-30T00:25:48;11.23;;;6.45;;
22652;SDS011;11493;43.344;26.226;2023-09-30T00:28:16;12.95;;;7.07;;
22652;SDS011;11493;43.344;26.226;2023-09-30T00:30:43;18.20;;;8.07;;
22652;SDS011;11493;43.344;26.226;2023-09-30T00:33:14;16.63;;;7.10;;
22652;SDS011;11493;43.344;26.226;2023-09-30T00:35:41;12.70;;;7.40;;
22652;SDS011;11493;43.344;26.226;2023-09-30T00:38:08;19.73;;;8.05;;
22652;SDS011;11493;43.344;26.226;2023-09-30T00:40:36;20.52;;;7.40;;
22652;SDS011;11493;43.344;26.226;2023-09-30T00:43:04;16.52;;;7.65;;
22652;SDS011;11493;43.344;26.226;2023-09-30T00:45:31;14.82;;;7.45;;
22652;SDS011;11493;43.344;26.226;2023-09-30T00:47:59;17.02;;;7.30;;
22652;SDS011;11493;43.344;26.226;2023-09-30T00:50:26;12.88;;;7.28;;
22652;SDS011;11493;43.344;26.226;2023-09-30T00:52:55;14.13;;;7.07;;
22652;SDS011;11493;43.344;26.226;2023-09-30T00:55:22;21.25;;;7.72;;
22652;SDS011;11493;43.344;26.226;2023-09-30T00:57:49;11.18;;;7.47;;
22652;SDS011;11493;43.344;26.226;2023-09-30T01:00:17;20.33;;;6.88;;
22652;SDS011;11493;43.344;26.226;2023-09-30T01:02:46;16.67;;;8.95;;
22652;SDS011;11493;43.344;26.226;2023-09-30T01:05:13;30.98;;;13.63;;
22652;SDS011;11493;43.344;26.226;2023-09-30T01:07:40;37.97;;;13.82;;
22652;SDS011;11493;43.344;26.226;2023-09-30T01:10:07;32.20;;;13.07;;
22652;SDS011;11493;43.344;26.226;2023-09-30T01:12:34;30.70;;;13.32;;
22652;SDS011;11493;43.344;26.226;2023-09-30T01:15:01;35.10;;;16.05;;
22652;SDS011;11493;43.344;26.226;2023-09-30T01:17:33;32.60;;;15.52;;
22652;SDS011;11493;43.344;26.226;2023-09-30T01:20:00;28.00;;;14.00;;
22652;SDS011;11493;43.344;26.226;2023-09-30T01:22:31;23.88;;;13.90;;
22652;SDS011;11493;43.344;26.226;2023-09-30T01:24:59;35.83;;;14.90;;
22652;SDS011;11493;43.344;26.226;2023-09-30T01:27:26;43.95;;;14.55;;
22652;SDS011;11493;43.344;26.226;2023-09-30T01:29:53;32.03;;;14.30;;
22652;SDS011;11493;43.344;26.226;2023-09-30T01:32:20;31.48;;;13.85;;
22652;SDS011;11493;43.344;26.226;2023-09-30T01:34:47;26.90;;;10.95;;
22652;SDS011;11493;43.344;26.226;2023-09-30T01:37:15;17.98;;;9.95;;
22652;SDS011;11493;43.344;26.226;2023-09-30T01:39:42;23.05;;;10.02;;
22652;SDS011;11493;43.344;26.226;2023-09-30T01:42:11;17.50;;;9.50;;
22652;SDS011;11493;43.344;26.226;2023-09-30T01:44:38;25.30;;;10.32;;
22652;SDS011;11493;43.344;26.226;2023-09-30T01:47:05;17.00;;;9.98;;
22652;SDS011;11493;43.344;26.226;2023-09-30T01:49:32;18.55;;;9.77;;
22652;SDS011;11493;43.344;26.226;2023-09-30T01:51:59;22.42;;;10.10;;
22652;SDS011;11493;43.344;26.226;2023-09-30T01:54:26;19.50;;;9.13;;
22652;SDS011;11493;43.344;26.226;2023-09-30T01:56:54;16.60;;;9.65;;
22652;SDS011;11493;43.344;26.226;2023-09-30T01:59:21;20.17;;;9.52;;
22652;SDS011;11493;43.344;26.226;2023-09-30T02:01:48;24.25;;;9.27;;
22652;SDS011;11493;43.344;26.226;2023-09-30T02:04:16;18.17;;;8.95;;
22652;SDS011;11493;43.344;26.226;2023-09-30T02:06:43;19.17;;;7.97;;
22652;SDS011;11493;43.344;26.226;2023-09-30T02:09:11;18.58;;;7.57;;
22652;SDS011;11493;43.344;26.226;2023-09-30T02:11:39;15.27;;;8.48;;
22652;SDS011;11493;43.344;26.226;2023-09-30T02:14:08;18.50;;;7.93;;
22652;SDS011;11493;43.344;26.226;2023-09-30T02:16:39;16.02;;;8.20;;
22652;SDS011;11493;43.344;26.226;2023-09-30T02:19:06;36.63;;;13.35;;
22652;SDS011;11493;43.344;26.226;2023-09-30T02:21:33;26.08;;;11.75;;
22652;SDS011;11493;43.344;26.226;2023-09-30T02:24:01;34.00;;;14.88;;
22652;SDS011;11493;43.344;26.226;2023-09-30T02:26:29;28.10;;;13.60;;
22652;SDS011;11493;43.344;26.226;2023-09-30T02:28:56;34.55;;;13.95;;
22652;SDS011;11493;43.344;26.226;2023-09-30T02:31:23;28.38;;;13.30;;
22652;SDS011;11493;43.344;26.226;2023-09-30T02:33:50;31.38;;;12.23;;
22652;SDS011;11493;43.344;26.226;2023-09-30T02:36:17;21.75;;;10.02;;
22652;SDS011;11493;43.344;26.226;2023-09-30T02:38:44;29.67;;;10.80;;
22652;SDS011;11493;43.344;26.226;2023-09-30T02:41:12;31.88;;;12.13;;
22652;SDS011;11493;43.344;26.226;2023-09-30T02:43:40;24.80;;;11.85;;
22652;SDS011;11493;43.344;26.226;2023-09-30T02:46:07;28.92;;;12.68;;
22652;SDS011;11493;43.344;26.226;2023-09-30T02:48:35;31.33;;;14.45;;
22652;SDS011;11493;43.344;26.226;2023-09-30T02:51:02;24.88;;;14.25;;
22652;SDS011;11493;43.344;26.226;2023-09-30T02:53:29;31.10;;;14.27;;
22652;SDS011;11493;43.344;26.226;2023-09-30T02:55:56;30.38;;;15.57;;
22652;SDS011;11493;43.344;26.226;2023-09-30T02:58:26;21.87;;;11.97;;
22652;SDS011;11493;43.344;26.226;2023-09-30T03:00:54;24.65;;;10.00;;
22652;SDS011;11493;43.344;26.226;2023-09-30T03:03:21;18.52;;;9.68;;
22652;SDS011;11493;43.344;26.226;2023-09-30T03:05:48;12.63;;;8.85;;
22652;SDS011;11493;43.344;26.226;2023-09-30T03:08:16;14.15;;;8.25;;
22652;SDS011;11493;43.344;26.226;2023-09-30T03:10:44;14.18;;;7.50;;
22652;SDS011;11493;43.344;26.226;2023-09-30T03:13:11;17.50;;;7.35;;
22652;SDS011;11493;43.344;26.226;2023-09-30T03:15:38;16.25;;;8.75;;
22652;SDS011;11493;43.344;26.226;2023-09-30T03:18:05;17.65;;;8.52;;
22652;SDS011;11493;43.344;26.226;2023-09-30T03:20:32;15.77;;;8.45;;
22652;SDS011;11493;43.344;26.226;2023-09-30T03:22:59;17.17;;;7.90;;
22652;SDS011;11493;43.344;26.226;2023-09-30T03:25:31;12.52;;;8.40;;
22652;SDS011;11493;43.344;26.226;2023-09-30T03:27:59;20.40;;;8.88;;
22652;SDS011;11493;43.344;26.226;2023-09-30T03:30:26;19.20;;;10.07;;
22652;SDS011;11493;43.344;26.226;2023-09-30T03:32:53;19.10;;;9.18;;
22652;SDS011;11493;43.344;26.226;2023-09-30T03:35:19;15.55;;;8.63;;
22652;SDS011;11493;43.344;26.226;2023-09-30T03:37:48;13.98;;;9.25;;
22652;SDS011;11493;43.344;26.226;2023-09-30T03:40:15;14.88;;;8.82;;
22652;SDS011;11493;43.344;26.226;2023-09-30T03:42:47;20.80;;;8.20;;
22652;SDS011;11493;43.344;26.226;2023-09-30T03:45:17;19.08;;;8.50;;
22652;SDS011;11493;43.344;26.226;2023-09-30T03:47:45;12.43;;;8.65;;
22652;SDS011;11493;43.344;26.226;2023-09-30T03:50:16;21.58;;;8.80;;
22652;SDS011;11493;43.344;26.226;2023-09-30T03:52:43;16.58;;;8.30;;
22652;SDS011;11493;43.344;26.226;2023-09-30T03:55:14;19.55;;;8.80;;
22652;SDS011;11493;43.344;26.226;2023-09-30T03:57:43;18.20;;;7.45;;
22652;SDS011;11493;43.344;26.226;2023-09-30T04:00:14;12.43;;;7.15;;
22652;SDS011;11493;43.344;26.226;2023-09-30T04:02:43;15.93;;;7.25;;
22652;SDS011;11493;43.344;26.226;2023-09-30T04:05:10;19.98;;;8.10;;
22652;SDS011;11493;43.344;26.226;2023-09-30T04:07:40;16.77;;;8.02;;
22652;SDS011;11493;43.344;26.226;2023-09-30T04:10:09;26.40;;;8.27;;
22652;SDS011;11493;43.344;26.226;2023-09-30T04:12:37;14.00;;;7.93;;
22652;SDS011;11493;43.344;26.226;2023-09-30T04:15:04;29.30;;;8.77;;
22652;SDS011;11493;43.344;26.226;2023-09-30T04:17:31;23.48;;;8.48;;
22652;SDS011;11493;43.344;26.226;2023-09-30T04:19:59;19.15;;;9.30;;
22652;SDS011;11493;43.344;26.226;2023-09-30T04:22:27;22.70;;;8.57;;
22652;SDS011;11493;43.344;26.226;2023-09-30T04:24:56;29.10;;;10.30;;
22652;SDS011;11493;43.344;26.226;2023-09-30T04:27:23;21.65;;;9.20;;
22652;SDS011;11493;43.344;26.226;2023-09-30T04:29:50;18.67;;;9.18;;
22652;SDS011;11493;43.344;26.226;2023-09-30T04:32:17;27.77;;;10.00;;
22652;SDS011;11493;43.344;26.226;2023-09-30T04:34:44;17.73;;;9.02;;
22652;SDS011;11493;43.344;26.226;2023-09-30T04:37:13;16.05;;;8.13;;
22652;SDS011;11493;43.344;26.226;2023-09-30T04:39:40;23.75;;;9.63;;
22652;SDS011;11493;43.344;26.226;2023-09-30T04:42:08;26.13;;;8.82;;
22652;SDS011;11493;43.344;26.226;2023-09-30T04:44:38;19.92;;;9.18;;
22652;SDS011;11493;43.344;26.226;2023-09-30T04:47:05;24.42;;;9.13;;
22652;SDS011;11493;43.344;26.226;2023-09-30T04:49:32;21.70;;;9.05;;
22652;SDS011;11493;43.344;26.226;2023-09-30T04:51:59;17.58;;;8.15;;
22652;SDS011;11493;43.344;26.226;2023-09-30T04:54:27;21.08;;;9.05;;
22652;SDS011;11493;43.344;26.226;2023-09-30T04:56:56;15.13;;;7.45;;
22652;SDS011;11493;43.344;26.226;2023-09-30T04:59:23;15.82;;;8.80;;
22652;SDS011;11493;43.344;26.226;2023-09-30T05:01:51;26.40;;;11.05;;
22652;SDS011;11493;43.344;26.226;2023-09-30T05:04:20;21.13;;;9.85;;
22652;SDS011;11493;43.344;26.226;2023-09-30T05:06:47;32.83;;;10.95;;
22652;SDS011;11493;43.344;26.226;2023-09-30T05:09:14;23.52;;;10.77;;
22652;SDS011;11493;43.344;26.226;2023-09-30T05:11:41;28.65;;;10.38;;
22652;SDS011;11493;43.344;26.226;2023-09-30T05:14:08;26.80;;;10.55;;
22652;SDS011;11493;43.344;26.226;2023-09-30T05:16:35;21.23;;;9.93;;
22652;SDS011;11493;43.344;26.226;2023-09-30T05:19:03;24.58;;;10.40;;
22652;SDS011;11493;43.344;26.226;2023-09-30T05:21:31;23.35;;;10.93;;
22652;SDS011;11493;43.344;26.226;2023-09-30T05:23:58;27.30;;;11.25;;
22652;SDS011;11493;43.344;26.226;2023-09-30T05:26:25;25.08;;;12.13;;
22652;SDS011;11493;43.344;26.226;2023-09-30T05:28:52;29.65;;;11.02;;
22652;SDS011;11493;43.344;26.226;2023-09-30T05:31:19;28.05;;;10.95;;
22652;SDS011;11493;43.344;26.226;2023-09-30T05:33:47;19.35;;;11.23;;
22652;SDS011;11493;43.344;26.226;2023-09-30T05:36:15;19.45;;;10.77;;
22652;SDS011;11493;43.344;26.226;2023-09-30T05:38:42;23.15;;;11.13;;
22652;SDS011;11493;43.344;26.226;2023-09-30T05:41:09;22.65;;;10.65;;
22652;SDS011;11493;43.344;26.226;2023-09-30T05:43:35;29.88;;;11.95;;
22652;SDS011;11493;43.344;26.226;2023-09-30T05:46:02;26.75;;;12.38;;
22652;SDS011;11493;43.344;26.226;2023-09-30T05:48:31;31.95;;;11.98;;
22652;SDS011;11493;43.344;26.226;2023-09-30T05:50:58;27.23;;;12.18;;
22652;SDS011;11493;43.344;26.226;2023-09-30T05:53:25;29.75;;;13.13;;
22652;SDS011;11493;43.344;26.226;2023-09-30T05:55:54;34.17;;;12.70;;
22652;SDS011;11493;43.344;26.226;2023-09-30T05:58:21;36.72;;;15.95;;
22652;SDS011;11493;43.344;26.226;2023-09-30T06:00:50;33.90;;;14.85;;
22652;SDS011;11493;43.344;26.226;2023-09-30T06:03:17;33.28;;;15.40;;
22652;SDS011;11493;43.344;26.226;2023-09-30T06:05:44;39.83;;;15.73;;
22652;SDS011;11493;43.344;26.226;2023-09-30T06:08:13;49.83;;;20.45;;
22652;SDS011;11493;43.344;26.226;2023-09-30T06:10:41;48.03;;;19.13;;
22652;SDS011;11493;43.344;26.226;2023-09-30T06:15:40;36.55;;;12.02;;
22652;SDS011;11493;43.344;26.226;2023-09-30T06:18:09;32.10;;;12.73;;
22652;SDS011;11493;43.344;26.226;2023-09-30T06:20:38;26.70;;;11.00;;
22652;SDS011;11493;43.344;26.226;2023-09-30T06:23:06;26.73;;;11.63;;
22652;SDS011;11493;43.344;26.226;2023-09-30T06:25:33;27.73;;;11.13;;
22652;SDS011;11493;43.344;26.226;2023-09-30T06:28:00;39.97;;;12.82;;
22652;SDS011;11493;43.344;26.226;2023-09-30T06:30:27;22.55;;;11.98;;
22652;SDS011;11493;43.344;26.226;2023-09-30T06:33:02;27.67;;;12.35;;
22652;SDS011;11493;43.344;26.226;2023-09-30T06:35:32;28.90;;;11.95;;
22652;SDS011;11493;43.344;26.226;2023-09-30T06:38:06;42.55;;;11.93;;
22652;SDS011;11493;43.344;26.226;2023-09-30T06:40:34;31.17;;;11.05;;
22652;SDS011;11493;43.344;26.226;2023-09-30T06:43:06;28.63;;;11.45;;
22652;SDS011;11493;43.344;26.226;2023-09-30T06:45:34;22.73;;;11.15;;
22652;SDS011;11493;43.344;26.226;2023-09-30T06:48:06;23.05;;;10.18;;
22652;SDS011;11493;43.344;26.226;2023-09-30T06:50:33;36.25;;;10.27;;
22652;SDS011;11493;43.344;26.226;2023-09-30T06:53:00;23.83;;;10.15;;
22652;SDS011;11493;43.344;26.226;2023-09-30T06:55:27;28.77;;;10.38;;
22652;SDS011;11493;43.344;26.226;2023-09-30T06:57:55;31.05;;;9.50;;
22652;SDS011;11493;43.344;26.226;2023-09-30T07:00:22;33.13;;;9.98;;
22652;SDS011;11493;43.344;26.226;2023-09-30T07:02:49;28.90;;;9.93;;
22652;SDS011;11493;43.344;26.226;2023-09-30T07:05:16;26.13;;;8.43;;
22652;SDS011;11493;43.344;26.226;2023-09-30T07:07:44;33.00;;;9.23;;
22652;SDS011;11493;43.344;26.226;2023-09-30T07:10:12;48.38;;;10.60;;
22652;SDS011;11493;43.344;26.226;2023-09-30T07:12:40;26.58;;;9.32;;
22652;SDS011;11493;43.344;26.226;2023-09-30T07:15:08;36.80;;;10.05;;
22652;SDS011;11493;43.344;26.226;2023-09-30T07:17:35;26.83;;;9.38;;
22652;SDS011;11493;43.344;26.226;2023-09-30T07:20:03;29.17;;;10.15;;
22652;SDS011;11493;43.344;26.226;2023-09-30T07:22:32;22.35;;;10.02;;
22652;SDS011;11493;43.344;26.226;2023-09-30T07:25:18;27.88;;;8.65;;
22652;SDS011;11493;43.344;26.226;2023-09-30T07:27:45;16.38;;;8.55;;
22652;SDS011;11493;43.344;26.226;2023-09-30T07:30:13;35.25;;;8.85;;
22652;SDS011;11493;43.344;26.226;2023-09-30T07:32:44;27.13;;;8.38;;
22652;SDS011;11493;43.344;26.226;2023-09-30T07:35:12;25.75;;;8.07;;
22652;SDS011;11493;43.344;26.226;2023-09-30T07:37:42;21.13;;;8.40;;
22652;SDS011;11493;43.344;26.226;2023-09-30T07:40:12;23.75;;;7.70;;
22652;SDS011;11493;43.344;26.226;2023-09-30T07:42:39;22.35;;;8.10;;
22652;SDS011;11493;43.344;26.226;2023-09-30T07:45:07;17.48;;;7.95;;
22652;SDS011;11493;43.344;26.226;2023-09-30T07:47:35;21.75;;;7.05;;
22652;SDS011;11493;43.344;26.226;2023-09-30T07:50:02;15.68;;;7.20;;
22652;SDS011;11493;43.344;26.226;2023-09-30T07:52:37;23.48;;;7.18;;
22652;SDS011;11493;43.344;26.226;2023-09-30T07:55:07;24.50;;;7.45;;
22652;SDS011;11493;43.344;26.226;2023-09-30T07:57:35;26.42;;;7.28;;
22652;SDS011;11493;43.344;26.226;2023-09-30T08:00:03;23.27;;;6.40;;
22652;SDS011;11493;43.344;26.226;2023-09-30T08:02:51;13.80;;;5.38;;
22652;SDS011;11493;43.344;26.226;2023-09-30T08:05:18;9.40;;;4.55;;
22652;SDS011;11493;43.344;26.226;2023-09-30T08:07:45;15.20;;;6.18;;
22652;SDS011;11493;43.344;26.226;2023-09-30T08:10:12;11.27;;;5.07;;
22652;SDS011;11493;43.344;26.226;2023-09-30T08:12:43;11.30;;;4.45;;
22652;SDS011;11493;43.344;26.226;2023-09-30T08:15:16;12.43;;;3.92;;
22652;SDS011;11493;43.344;26.226;2023-09-30T08:17:44;13.25;;;4.53;;
22652;SDS011;11493;43.344;26.226;2023-09-30T08:20:11;9.75;;;4.43;;
22652;SDS011;11493;43.344;26.226;2023-09-30T08:22:39;17.88;;;5.05;;
22652;SDS011;11493;43.344;26.226;2023-09-30T08:25:08;15.15;;;4.53;;
22652;SDS011;11493;43.344;26.226;2023-09-30T08:27:38;16.23;;;4.25;;
22652;SDS011;11493;43.344;26.226;2023-09-30T08:30:06;12.73;;;4.93;;
22652;SDS011;11493;43.344;26.226;2023-09-30T08:32:37;9.00;;;4.85;;
22652;SDS011;11493;43.344;26.226;2023-09-30T08:35:05;10.30;;;4.30;;
22652;SDS011;11493;43.344;26.226;2023-09-30T08:37:33;17.08;;;4.78;;
22652;SDS011;11493;43.344;26.226;2023-09-30T08:40:00;14.65;;;4.00;;
22652;SDS011;11493;43.344;26.226;2023-09-30T08:42:27;10.57;;;4.43;;
22652;SDS011;11493;43.344;26.226;2023-09-30T08:45:00;16.35;;;4.22;;
22652;SDS011;11493;43.344;26.226;2023-09-30T08:47:27;20.60;;;4.30;;
22652;SDS011;11493;43.344;26.226;2023-09-30T08:49:59;6.88;;;3.92;;
22652;SDS011;11493;43.344;26.226;2023-09-30T08:52:33;11.13;;;3.75;;
22652;SDS011;11493;43.344;26.226;2023-09-30T08:55:09;9.98;;;4.07;;
22652;SDS011;11493;43.344;26.226;2023-09-30T08:57:37;14.13;;;4.15;;
22652;SDS011;11493;43.344;26.226;2023-09-30T09:00:11;11.88;;;4.43;;
22652;SDS011;11493;43.344;26.226;2023-09-30T09:02:40;12.82;;;4.25;;
22652;SDS011;11493;43.344;26.226;2023-09-30T09:05:08;18.83;;;5.28;;
22652;SDS011;11493;43.344;26.226;2023-09-30T09:07:36;12.85;;;4.22;;
22652;SDS011;11493;43.344;26.226;2023-09-30T09:10:04;17.15;;;3.97;;
22652;SDS011;11493;43.344;26.226;2023-09-30T09:12:38;15.77;;;4.15;;
22652;SDS011;11493;43.344;26.226;2023-09-30T09:15:07;11.50;;;4.15;;
22652;SDS011;11493;43.344;26.226;2023-09-30T09:17:42;10.88;;;4.18;;
22652;SDS011;11493;43.344;26.226;2023-09-30T09:20:10;12.07;;;4.38;;
22652;SDS011;11493;43.344;26.226;2023-09-30T09:22:47;8.40;;;4.43;;
22652;SDS011;11493;43.344;26.226;2023-09-30T09:25:20;13.52;;;3.88;;
22652;SDS011;11493;43.344;26.226;2023-09-30T09:27:50;11.00;;;4.00;;
22652;SDS011;11493;43.344;26.226;2023-09-30T09:30:18;10.05;;;4.03;;
22652;SDS011;11493;43.344;26.226;2023-09-30T09:32:53;10.65;;;4.07;;
22652;SDS011;11493;43.344;26.226;2023-09-30T09:35:34;7.10;;;3.72;;
22652;SDS011;11493;43.344;26.226;2023-09-30T09:38:03;10.57;;;3.58;;
22652;SDS011;11493;43.344;26.226;2023-09-30T09:40:32;10.95;;;3.65;;
22652;SDS011;11493;43.344;26.226;2023-09-30T09:43:01;16.42;;;4.45;;
22652;SDS011;11493;43.344;26.226;2023-09-30T09:45:33;6.75;;;4.07;;
22652;SDS011;11493;43.344;26.226;2023-09-30T09:48:02;6.28;;;4.10;;
22652;SDS011;11493;43.344;26.226;2023-09-30T09:50:31;17.30;;;4.38;;
22652;SDS011;11493;43.344;26.226;2023-09-30T09:52:59;12.48;;;5.30;;
22652;SDS011;11493;43.344;26.226;2023-09-30T09:55:27;12.77;;;4.72;;
22652;SDS011;11493;43.344;26.226;2023-09-30T09:57:54;9.23;;;4.53;;
22652;SDS011;11493;43.344;26.226;2023-09-30T10:00:25;15.57;;;4.78;;
22652;SDS011;11493;43.344;26.226;2023-09-30T10:02:53;15.82;;;4.55;;
22652;SDS011;11493;43.344;26.226;2023-09-30T10:05:20;18.45;;;4.75;;
22652;SDS011;11493;43.344;26.226;2023-09-30T10:07:52;6.30;;;3.92;;
22652;SDS011;11493;43.344;26.226;2023-09-30T10:10:22;7.65;;;4.45;;
22652;SDS011;11493;43.344;26.226;2023-09-30T10:12:53;11.95;;;3.90;;
22652;SDS011;11493;43.344;26.226;2023-09-30T10:17:57;10.65;;;3.83;;
22652;SDS011;11493;43.344;26.226;2023-09-30T10:20:38;12.15;;;4.00;;
22652;SDS011;11493;43.344;26.226;2023-09-30T10:23:28;11.30;;;4.00;;
22652;SDS011;11493;43.344;26.226;2023-09-30T10:28:39;10.88;;;3.95;;
22652;SDS011;11493;43.344;26.226;2023-09-30T10:31:20;8.88;;;3.58;;
22652;SDS011;11493;43.344;26.226;2023-09-30T10:36:32;7.10;;;4.28;;
22652;SDS011;11493;43.344;26.226;2023-09-30T10:39:01;14.70;;;3.97;;
22652;SDS011;11493;43.344;26.226;2023-09-30T10:46:49;9.27;;;4.30;;
22652;SDS011;11493;43.344;26.226;2023-09-30T10:51:50;16.48;;;3.80;;
22652;SDS011;11493;43.344;26.226;2023-09-30T10:54:23;14.27;;;3.97;;
22652;SDS011;11493;43.344;26.226;2023-09-30T10:56:52;22.85;;;4.25;;
22652;SDS011;11493;43.344;26.226;2023-09-30T10:59:21;15.25;;;4.57;;
22652;SDS011;11493;43.344;26.226;2023-09-30T11:01:49;10.60;;;5.03;;
22652;SDS011;11493;43.344;26.226;2023-09-30T11:04:19;14.35;;;4.93;;
22652;SDS011;11493;43.344;26.226;2023-09-30T11:06:46;10.85;;;4.90;;
22652;SDS011;11493;43.344;26.226;2023-09-30T11:09:18;4.88;;;4.30;;
22652;SDS011;11493;43.344;26.226;2023-09-30T11:11:50;11.77;;;4.90;;
22652;SDS011;11493;43.344;26.226;2023-09-30T11:14:24;10.32;;;4.68;;
22652;SDS011;11493;43.344;26.226;2023-09-30T11:17:00;12.75;;;3.97;;
22652;SDS011;11493;43.344;26.226;2023-09-30T11:19:47;5.43;;;3.50;;
22652;SDS011;11493;43.344;26.226;2023-09-30T11:22:15;10.40;;;4.43;;
22652;SDS011;11493;43.344;26.226;2023-09-30T11:24:42;10.65;;;3.63;;
22652;SDS011;11493;43.344;26.226;2023-09-30T11:27:12;16.58;;;3.60;;
22652;SDS011;11493;43.344;26.226;2023-09-30T11:29:49;6.32;;;3.45;;
22652;SDS011;11493;43.344;26.226;2023-09-30T11:32:25;18.10;;;3.45;;
22652;SDS011;11493;43.344;26.226;2023-09-30T11:34:56;12.30;;;3.90;;
22652;SDS011;11493;43.344;26.226;2023-09-30T11:37:23;9.55;;;4.20;;
22652;SDS011;11493;43.344;26.226;2023-09-30T11:40:08;6.28;;;3.60;;
22652;SDS011;11493;43.344;26.226;2023-09-30T11:42:40;13.30;;;4.15;;
22652;SDS011;11493;43.344;26.226;2023-09-30T11:45:18;7.70;;;4.05;;
22652;SDS011;11493;43.344;26.226;2023-09-30T11:47:51;14.32;;;4.18;;
22652;SDS011;11493;43.344;26.226;2023-09-30T11:50:18;10.02;;;4.95;;
22652;SDS011;11493;43.344;26.226;2023-09-30T11:52:45;19.30;;;4.40;;
22652;SDS011;11493;43.344;26.226;2023-09-30T11:55:16;11.07;;;4.82;;
22652;SDS011;11493;43.344;26.226;2023-09-30T11:57:46;11.85;;;4.10;;
22652;SDS011;11493;43.344;26.226;2023-09-30T12:00:14;8.35;;;3.78;;
22652;SDS011;11493;43.344;26.226;2023-09-30T12:02:41;6.60;;;4.35;;
22652;SDS011;11493;43.344;26.226;2023-09-30T12:05:08;5.45;;;3.45;;
22652;SDS011;11493;43.344;26.226;2023-09-30T12:07:38;13.20;;;4.30;;
22652;SDS011;11493;43.344;26.226;2023-09-30T12:10:08;9.20;;;3.45;;
22652;SDS011;11493;43.344;26.226;2023-09-30T12:12:35;17.25;;;4.07;;
22652;SDS011;11493;43.344;26.226;2023-09-30T12:15:03;17.65;;;3.33;;
22652;SDS011;11493;43.344;26.226;2023-09-30T12:17:30;10.90;;;3.95;;
22652;SDS011;11493;43.344;26.226;2023-09-30T12:19:57;10.10;;;3.78;;
22652;SDS011;11493;43.344;26.226;2023-09-30T12:22:24;13.50;;;4.32;;
22652;SDS011;11493;43.344;26.226;2023-09-30T12:24:51;17.83;;;3.38;;
22652;SDS011;11493;43.344;26.226;2023-09-30T12:27:18;10.15;;;4.22;;
22652;SDS011;11493;43.344;26.226;2023-09-30T12:29:45;12.57;;;3.88;;
22652;SDS011;11493;43.344;26.226;2023-09-30T12:32:15;21.05;;;4.30;;
22652;SDS011;11493;43.344;26.226;2023-09-30T12:34:42;18.83;;;4.30;;
22652;SDS011;11493;43.344;26.226;2023-09-30T12:37:10;15.48;;;3.83;;
22652;SDS011;11493;43.344;26.226;2023-09-30T12:39:37;9.73;;;4.38;;
22652;SDS011;11493;43.344;26.226;2023-09-30T12:42:04;13.13;;;4.47;;
22652;SDS011;11493;43.344;26.226;2023-09-30T12:44:35;10.63;;;4.20;;
22652;SDS011;11493;43.344;26.226;2023-09-30T12:47:03;12.80;;;3.97;;
22652;SDS011;11493;43.344;26.226;2023-09-30T12:49:31;18.05;;;3.42;;
22652;SDS011;11493;43.344;26.226;2023-09-30T12:51:59;8.77;;;3.28;;
22652;SDS011;11493;43.344;26.226;2023-09-30T12:54:28;12.95;;;4.07;;
22652;SDS011;11493;43.344;26.226;2023-09-30T12:56:55;7.50;;;3.60;;
22652;SDS011;11493;43.344;26.226;2023-09-30T12:59:22;26.95;;;6.28;;
22652;SDS011;11493;43.344;26.226;2023-09-30T13:01:52;8.80;;;4.82;;
22652;SDS011;11493;43.344;26.226;2023-09-30T13:04:20;13.88;;;5.47;;
22652;SDS011;11493;43.344;26.226;2023-09-30T13:06:47;11.45;;;5.47;;
22652;SDS011;11493;43.344;26.226;2023-09-30T13:09:17;14.60;;;5.28;;
22652;SDS011;11493;43.344;26.226;2023-09-30T13:11:46;12.10;;;6.35;;
22652;SDS011;11493;43.344;26.226;2023-09-30T13:14:14;10.85;;;5.13;;
22652;SDS011;11493;43.344;26.226;2023-09-30T13:16:41;12.02;;;5.78;;
22652;SDS011;11493;43.344;26.226;2023-09-30T13:19:08;11.77;;;5.07;;
22652;SDS011;11493;43.344;26.226;2023-09-30T13:21:35;15.05;;;4.85;;
22652;SDS011;11493;43.344;26.226;2023-09-30T13:24:02;15.00;;;4.15;;
22652;SDS011;11493;43.344;26.226;2023-09-30T13:26:33;15.13;;;3.33;;
22652;SDS011;11493;43.344;26.226;2023-09-30T13:29:00;8.77;;;3.90;;
22652;SDS011;11493;43.344;26.226;2023-09-30T13:31:27;5.72;;;3.03;;
22652;SDS011;11493;43.344;26.226;2023-09-30T13:33:57;10.68;;;3.25;;
22652;SDS011;11493;43.344;26.226;2023-09-30T13:36:24;9.30;;;4.03;;
22652;SDS011;11493;43.344;26.226;2023-09-30T13:38:51;7.97;;;3.80;;
22652;SDS011;11493;43.344;26.226;2023-09-30T13:41:18;10.30;;;3.53;;
22652;SDS011;11493;43.344;26.226;2023-09-30T13:43:45;16.23;;;3.83;;
22652;SDS011;11493;43.344;26.226;2023-09-30T13:46:12;20.67;;;3.92;;
22652;SDS011;11493;43.344;26.226;2023-09-30T13:48:39;7.15;;;3.70;;
22652;SDS011;11493;43.344;26.226;2023-09-30T13:51:07;8.93;;;3.75;;
22652;SDS011;11493;43.344;26.226;2023-09-30T13:53:35;12.65;;;3.88;;
22652;SDS011;11493;43.344;26.226;2023-09-30T13:56:03;16.00;;;4.78;;
22652;SDS011;11493;43.344;26.226;2023-09-30T13:58:30;11.88;;;4.70;;
22652;SDS011;11493;43.344;26.226;2023-09-30T14:00:57;6.97;;;3.85;;
22652;SDS011;11493;43.344;26.226;2023-09-30T14:03:25;12.07;;;3.88;;
22652;SDS011;11493;43.344;26.226;2023-09-30T14:05:52;9.30;;;3.67;;
22652;SDS011;11493;43.344;26.226;2023-09-30T14:08:20;9.48;;;4.15;;
22652;SDS011;11493;43.344;26.226;2023-09-30T14:10:47;24.63;;;4.65;;
22652;SDS011;11493;43.344;26.226;2023-09-30T14:13:16;8.27;;;4.40;;
22652;SDS011;11493;43.344;26.226;2023-09-30T14:15:44;11.77;;;4.13;;
22652;SDS011;11493;43.344;26.226;2023-09-30T14:18:13;13.88;;;4.70;;
22652;SDS011;11493;43.344;26.226;2023-09-30T14:20:41;12.60;;;4.85;;
22652;SDS011;11493;43.344;26.226;2023-09-30T14:23:09;10.48;;;3.88;;
22652;SDS011;11493;43.344;26.226;2023-09-30T14:25:36;16.33;;;4.25;;
22652;SDS011;11493;43.344;26.226;2023-09-30T14:28:04;13.15;;;4.10;;
22652;SDS011;11493;43.344;26.226;2023-09-30T14:30:31;9.52;;;3.75;;
22652;SDS011;11493;43.344;26.226;2023-09-30T14:33:00;11.98;;;4.07;;
22652;SDS011;11493;43.344;26.226;2023-09-30T14:35:27;9.88;;;4.03;;
22652;SDS011;11493;43.344;26.226;2023-09-30T14:37:55;10.13;;;4.28;;
22652;SDS011;11493;43.344;26.226;2023-09-30T14:40:23;10.35;;;3.83;;
22652;SDS011;11493;43.344;26.226;2023-09-30T14:42:50;5.72;;;3.65;;
22652;SDS011;11493;43.344;26.226;2023-09-30T14:45:18;12.10;;;3.95;;
22652;SDS011;11493;43.344;26.226;2023-09-30T14:47:45;10.05;;;3.22;;